Time;durP1;ratioP1;P1;durP2;ratioP2;P2;SDS_P1;SDS_P2;PMS_P1;PMS_P2;Temp;Humidity;BMP_temperature;BMP_pressure;BME280_temperature;BME280_humidity;BME280_pressure;Samples;Min_cycle;Max_cycle;Signal;HPM_P1;HPM_P2
2021/11/19 00:00:22;;;;;;;0.40;0.30;;;;;;;10.22;100.00;101664.81;5094728;28;20432;-71
2021/11/19 00:02:50;;;;;;;0.40;0.30;;;;;;;10.25;100.00;101673.25;5094587;28;20444;-71
2021/11/19 00:05:17;;;;;;;0.40;0.30;;;;;;;10.26;100.00;101669.47;5094356;28;20445;-72
2021/11/19 00:07:43;;;;;;;0.40;0.30;;;;;;;10.28;100.00;101653.78;5094420;28;20852;-71
2021/11/19 00:10:11;;;;;;;0.40;0.30;;;;;;;10.29;100.00;101657.28;5094187;28;20942;-71
2021/11/19 00:12:37;;;;;;;0.40;0.30;;;;;;;10.32;100.00;101654.03;5094394;28;20436;-71
2021/11/19 00:15:06;;;;;;;0.40;0.30;;;;;;;10.34;100.00;101670.81;5094118;28;20447;-71
2021/11/19 00:17:32;;;;;;;0.40;0.30;;;;;;;10.33;100.00;101658.38;5094256;28;20487;-72
2021/11/19 00:20:00;;;;;;;0.40;0.30;;;;;;;10.29;100.00;101663.50;5094382;28;20440;-71
2021/11/19 00:22:26;;;;;;;0.40;0.30;;;;;;;10.33;100.00;101656.47;5094276;28;20440;-71
2021/11/19 00:24:53;;;;;;;0.40;0.30;;;;;;;10.37;100.00;101669.47;5093938;28;20452;-71
2021/11/19 00:27:21;;;;;;;2.80;2.00;;;;;;;10.36;100.00;101671.38;5093683;28;20479;-71
2021/11/19 00:29:49;;;;;;;0.40;0.30;;;;;;;10.41;100.00;101670.56;5094131;28;20436;-71
2021/11/19 00:32:16;;;;;;;0.40;0.30;;;;;;;10.43;100.00;101676.50;5094148;28;20440;-71
2021/11/19 00:34:43;;;;;;;0.40;0.20;;;;;;;10.44;100.00;101667.28;5093505;28;20448;-71
2021/11/19 00:37:12;;;;;;;0.40;0.30;;;;;;;10.45;100.00;101671.63;5093880;28;20981;-71
2021/11/19 00:39:39;;;;;;;0.40;0.30;;;;;;;10.44;100.00;101675.41;5093798;28;20433;-71
2021/11/19 00:42:07;;;;;;;0.50;0.47;;;;;;;10.45;100.00;101668.91;5093964;28;20436;-71
2021/11/19 00:44:34;;;;;;;0.40;0.40;;;;;;;10.47;100.00;101680.28;5093679;28;20495;-71
2021/11/19 00:47:00;;;;;;;0.40;0.30;;;;;;;10.49;100.00;101673.53;5093782;28;20863;-71
2021/11/19 00:49:30;;;;;;;2.00;1.60;;;;;;;10.53;100.00;101666.44;5093976;28;20480;-71
2021/11/19 00:51:58;;;;;;;0.40;0.30;;;;;;;10.57;100.00;101670.22;5094108;28;20451;-71
2021/11/19 00:54:27;;;;;;;1.27;1.27;;;;;;;10.58;100.00;101676.47;5093335;28;20832;-71
2021/11/19 00:56:56;;;;;;;0.40;0.30;;;;;;;10.57;100.00;101675.66;5093596;28;20464;-71
2021/11/19 00:59:24;;;;;;;0.40;0.30;;;;;;;10.56;100.00;101676.75;5093367;28;20877;-71
2021/11/19 01:01:56;;;;;;;0.40;0.30;;;;;;;10.54;100.00;101672.69;5093568;28;20443;-71
2021/11/19 01:04:23;;;;;;;0.40;0.30;;;;;;;10.57;100.00;101674.84;5092932;28;20495;-71
2021/11/19 01:06:51;;;;;;;0.40;0.30;;;;;;;10.58;100.00;101681.88;5093264;28;20464;-71
2021/11/19 01:09:20;;;;;;;0.40;0.30;;;;;;;10.55;100.00;101672.41;5093496;28;20491;-70
2021/11/19 01:11:49;;;;;;;0.40;0.23;;;;;;;10.57;100.00;101675.66;5093493;28;20436;-71
2021/11/19 01:14:21;;;;;;;0.40;0.30;;;;;;;10.58;100.00;101671.88;5093030;28;20490;-70
2021/11/19 01:16:50;;;;;;;0.40;0.30;;;;;;;10.61;100.00;101682.16;5093230;28;20510;-70
2021/11/19 01:19:20;;;;;;;0.40;0.30;;;;;;;10.67;100.00;101684.84;5093442;28;20802;-71
2021/11/19 01:21:50;;;;;;;0.80;0.80;;;;;;;10.67;100.00;101672.13;5093437;28;20427;-70
2021/11/19 01:24:17;;;;;;;0.40;0.30;;;;;;;10.67;100.00;101682.13;5092612;28;20941;-71
2021/11/19 01:26:46;;;;;;;0.40;0.30;;;;;;;10.69;100.00;101686.19;5094272;28;20487;-71
2021/11/19 01:29:16;;;;;;;0.40;0.20;;;;;;;10.72;100.00;101682.16;5093162;28;20546;-70
2021/11/19 01:31:46;;;;;;;0.40;0.20;;;;;;;10.66;100.00;101675.91;5092907;28;20439;-70
2021/11/19 01:34:13;;;;;;;0.40;0.30;;;;;;;10.71;100.00;101677.78;5093119;28;20436;-70
2021/11/19 01:36:40;;;;;;;0.40;0.30;;;;;;;10.71;100.00;101684.00;5092647;28;21031;-71
2021/11/19 01:39:10;;;;;;;0.40;0.30;;;;;;;10.71;100.00;101681.31;5092901;28;21000;-70
2021/11/19 01:41:40;;;;;;;0.40;0.30;;;;;;;10.73;100.00;101687.28;5093268;28;20435;-71
2021/11/19 01:44:15;;;;;;;0.40;0.30;;;;;;;10.83;100.00;101686.44;5093518;28;20444;-70
2021/11/19 01:46:45;;;;;;;0.40;0.30;;;;;;;10.82;100.00;101687.53;5093134;28;20478;-71
2021/11/19 01:49:12;;;;;;;0.40;0.20;;;;;;;10.86;100.00;101680.47;5093282;28;20483;-71
2021/11/19 01:51:48;;;;;;;1.17;1.17;;;;;;;10.83;100.00;101689.94;5093227;28;20432;-70
2021/11/19 01:54:19;;;;;;;0.40;0.30;;;;;;;10.88;100.00;101683.72;5092758;28;20914;-71
2021/11/19 01:56:48;;;;;;;0.40;0.30;;;;;;;10.93;100.00;101682.88;5092823;28;20500;-71
2021/11/19 01:59:19;;;;;;;0.40;0.30;;;;;;;10.94;100.00;101673.69;5092509;28;20486;-70
2021/11/19 02:01:49;;;;;;;0.40;0.30;;;;;;;10.94;100.00;101676.38;5093035;28;20429;-71
2021/11/19 02:04:20;;;;;;;0.40;0.30;;;;;;;10.98;100.00;101664.72;5092645;28;20436;-70
2021/11/19 02:06:50;;;;;;;0.40;0.30;;;;;;;10.97;100.00;101663.06;5093075;28;20467;-71
2021/11/19 02:09:29;;;;;;;0.40;0.20;;;;;;;10.95;100.00;101667.97;5092725;28;20879;-71
2021/11/19 02:12:08;;;;;;;0.40;0.30;;;;;;;10.97;100.00;101657.66;5092327;28;20806;-70
2021/11/19 02:14:51;;;;;;;0.40;0.30;;;;;;;10.96;100.00;101656.03;5092973;28;20425;-70
2021/11/19 02:17:18;;;;;;;0.40;0.30;;;;;;;10.99;100.00;101665.53;5094629;28;20840;-70
2021/11/19 02:19:47;;;;;;;0.40;0.30;;;;;;;11.01;100.00;101664.13;5096327;28;20445;-70
2021/11/19 02:22:19;;;;;;;0.40;0.30;;;;;;;11.07;100.00;101659.53;5096657;28;20428;-71
2021/11/19 02:24:52;;;;;;;0.40;0.20;;;;;;;11.01;100.00;101647.06;5096613;28;20413;-70
2021/11/19 02:27:21;;;;;;;0.40;0.30;;;;;;;11.03;100.00;101650.31;5096400;28;20482;-71
2021/11/19 02:29:53;;;;;;;0.40;0.30;;;;;;;11.06;100.00;101661.41;5096127;28;20483;-71
2021/11/19 02:32:25;;;;;;;0.40;0.30;;;;;;;11.06;100.00;101655.19;5096165;28;20906;-71
2021/11/19 02:34:52;;;;;;;0.40;0.30;;;;;;;11.05;100.00;101664.41;5096321;28;20429;-71
2021/11/19 02:37:25;;;;;;;0.40;0.30;;;;;;;11.07;100.00;101657.63;5096272;28;20459;-71
2021/11/19 02:39:55;;;;;;;1.43;1.13;;;;;;;11.09;100.00;101666.28;5095958;28;20530;-71
2021/11/19 02:42:25;;;;;;;0.40;0.30;;;;;;;11.12;100.00;101664.94;5096261;28;20436;-71
2021/11/19 02:44:57;;;;;;;0.40;0.30;;;;;;;11.16;100.00;101670.63;5096400;28;20480;-71
2021/11/19 02:47:26;;;;;;;0.40;0.30;;;;;;;11.14;100.00;101661.94;5096143;28;20469;-71
2021/11/19 02:49:53;;;;;;;0.50;0.47;;;;;;;11.20;100.00;101661.63;5095899;28;20480;-71
2021/11/19 02:52:24;;;;;;;0.40;0.30;;;;;;;11.24;100.00;101661.88;5095892;28;20925;-71
2021/11/19 02:54:52;;;;;;;0.40;0.30;;;;;;;11.24;100.00;101659.97;5095887;28;20424;-71
2021/11/19 02:57:19;;;;;;;0.40;0.30;;;;;;;11.17;100.00;101662.19;5095550;28;20978;-71
2021/11/19 02:59:48;;;;;;;0.40;0.30;;;;;;;11.21;100.00;101665.97;5095652;28;20441;-71
2021/11/19 03:02:19;;;;;;;0.40;0.30;;;;;;;11.25;100.00;101669.75;5095907;28;20443;-71
2021/11/19 03:04:48;;;;;;;0.40;0.30;;;;;;;11.29;100.00;101668.09;5095886;28;20427;-71
2021/11/19 03:07:15;;;;;;;0.40;0.30;;;;;;;11.33;100.00;101665.63;5095374;28;20841;-71
2021/11/19 03:09:44;;;;;;;0.40;0.30;;;;;;;11.30;100.00;101667.00;5095341;28;21001;-71
2021/11/19 03:12:21;;;;;;;0.40;0.30;;;;;;;11.29;100.00;101659.97;5095441;28;20967;-71
2021/11/19 03:14:50;;;;;;;0.40;0.30;;;;;;;11.31;100.00;101662.38;5095698;28;20432;-71
2021/11/19 03:17:19;;;;;;;0.40;0.30;;;;;;;11.33;100.00;101652.91;5095079;28;20502;-71
2021/11/19 03:19:46;;;;;;;0.40;0.30;;;;;;;11.35;100.00;101666.97;5095532;28;20436;-71
2021/11/19 03:22:16;;;;;;;0.40;0.30;;;;;;;11.36;100.00;101649.59;5095162;28;20437;-70
2021/11/19 03:24:43;;;;;;;0.40;0.30;;;;;;;11.33;100.00;101655.59;5095300;28;20522;-71
2021/11/19 03:27:11;;;;;;;0.40;0.30;;;;;;;11.43;100.00;101659.34;5102138;28;20491;-71
2021/11/19 03:29:38;;;;;;;0.40;0.30;;;;;;;11.46;100.00;101658.78;5095230;28;20476;-73
2021/11/19 03:32:06;;;;;;;0.40;0.27;;;;;;;11.48;100.00;101664.75;5095229;28;20432;-70
2021/11/19 03:34:35;;;;;;;0.40;0.30;;;;;;;11.54;100.00;101660.91;5094913;28;20784;-71
2021/11/19 03:37:01;;;;;;;0.40;0.30;;;;;;;11.52;100.00;101660.38;5095023;28;20460;-71
2021/11/19 03:39:29;;;;;;;0.40;0.30;;;;;;;11.53;100.00;101670.13;5095191;28;20853;-70
2021/11/19 03:41:57;;;;;;;1.47;1.40;;;;;;;11.55;100.00;101674.22;5095097;28;20447;-70
2021/11/19 03:44:26;;;;;;;0.40;0.30;;;;;;;11.59;100.00;101669.81;5095050;28;20451;-70
2021/11/19 03:47:01;;;;;;;0.40;0.30;;;;;;;11.57;100.00;101672.00;5094578;28;20471;-71
2021/11/19 03:49:28;;;;;;;0.40;0.30;;;;;;;11.58;100.00;101668.19;5094905;28;20460;-70
2021/11/19 03:51:59;;;;;;;0.40;0.30;;;;;;;11.55;100.00;101667.94;5094901;28;20443;-70
2021/11/19 03:54:28;;;;;;;0.40;0.30;;;;;;;11.55;100.00;101668.78;5094944;28;20425;-70
2021/11/19 03:56:59;;;;;;;0.40;0.30;;;;;;;11.50;100.00;101673.41;5094377;28;20467;-71
2021/11/19 03:59:26;;;;;;;1.33;1.23;;;;;;;11.40;100.00;101670.75;5094822;28;20450;-70
2021/11/19 04:01:55;;;;;;;0.40;0.30;;;;;;;11.39;100.00;101671.84;5094770;28;20440;-71
2021/11/19 04:04:30;;;;;;;0.40;0.30;;;;;;;11.33;100.00;101677.31;5094704;28;20440;-70
2021/11/19 04:07:00;;;;;;;0.40;0.30;;;;;;;11.31;100.00;101676.75;5094251;28;20973;-71
2021/11/19 04:09:27;;;;;;;0.40;0.30;;;;;;;11.30;100.00;101675.16;5074283;28;20481;-71
2021/11/19 04:11:54;;;;;;;0.40;0.30;;;;;;;11.27;100.00;101672.97;5074247;28;20446;-70
2021/11/19 04:14:20;;;;;;;0.40;0.30;;;;;;;11.27;100.00;101666.75;5074445;28;20441;-70
2021/11/19 04:16:50;;;;;;;0.40;0.30;;;;;;;11.27;100.00;101667.56;5087131;28;20480;-70
2021/11/19 04:19:19;;;;;;;0.40;0.30;;;;;;;11.28;100.00;101660.22;5093982;28;20433;-70
2021/11/19 04:21:47;;;;;;;0.40;0.30;;;;;;;11.25;100.00;101658.91;5094493;28;20490;-70
2021/11/19 04:24:17;;;;;;;0.40;0.30;;;;;;;11.26;100.00;101657.00;5094173;28;20436;-69
2021/11/19 04:26:44;;;;;;;0.40;0.40;;;;;;;11.23;100.00;101666.50;5093947;28;20992;-72
2021/11/19 04:29:11;;;;;;;0.40;0.30;;;;;;;11.27;100.00;101672.97;5093665;28;20480;-72
2021/11/19 04:31:37;;;;;;;1.20;1.10;;;;;;;11.28;100.00;101665.66;5094163;28;20468;-72
2021/11/19 04:34:06;;;;;;;0.40;0.30;;;;;;;11.30;100.00;101669.72;5094135;28;20444;-72
2021/11/19 04:36:33;;;;;;;0.40;0.30;;;;;;;11.32;100.00;101670.25;5094027;28;20456;-71
2021/11/19 04:39:00;;;;;;;0.40;0.20;;;;;;;11.26;100.00;101657.81;5093412;28;20436;-71
2021/11/19 04:41:27;;;;;;;0.40;0.30;;;;;;;11.29;100.00;101659.97;5093674;28;20499;-72
2021/11/19 04:43:54;;;;;;;0.40;0.30;;;;;;;11.26;100.00;101671.38;5093986;28;20440;-71
2021/11/19 04:46:20;;;;;;;0.40;0.30;;;;;;;11.23;100.00;101677.34;5093892;28;20456;-72
2021/11/19 04:48:47;;;;;;;0.40;0.30;;;;;;;11.30;100.00;101664.28;5093540;28;20933;-72
2021/11/19 04:51:18;;;;;;;0.53;0.53;;;;;;;11.28;100.00;101666.47;5092973;28;20463;-71
2021/11/19 04:53:46;;;;;;;0.40;0.30;;;;;;;11.34;100.00;101664.56;5094020;28;20425;-72
2021/11/19 04:56:13;;;;;;;0.40;0.23;;;;;;;11.38;100.00;101662.91;5093613;28;20447;-71
2021/11/19 04:58:42;;;;;;;0.40;0.30;;;;;;;11.38;100.00;101665.63;5093714;28;20451;-71
2021/11/19 05:01:11;;;;;;;0.40;0.30;;;;;;;11.44;100.00;101667.19;5093331;28;20452;-71
2021/11/19 05:03:38;;;;;;;0.40;0.30;;;;;;;11.45;100.00;101673.44;5093481;28;20451;-72
2021/11/19 05:06:05;;;;;;;0.40;0.30;;;;;;;11.47;100.00;101671.28;5093721;28;20847;-72
2021/11/19 05:08:33;;;;;;;0.40;0.30;;;;;;;11.45;100.00;101684.28;5093660;28;20452;-72
2021/11/19 05:11:00;;;;;;;0.40;0.30;;;;;;;11.49;100.00;101679.94;5093119;28;20539;-71
2021/11/19 05:13:29;;;;;;;0.40;0.30;;;;;;;11.49;100.00;101679.94;5093456;28;20428;-72
2021/11/19 05:15:59;;;;;;;0.40;0.30;;;;;;;11.45;100.00;101673.44;5093456;28;20440;-71
2021/11/19 05:18:28;;;;;;;0.40;0.40;;;;;;;11.47;100.00;101671.28;5093432;28;20440;-71
2021/11/19 05:20:56;;;;;;;0.40;0.20;;;;;;;11.53;100.00;101668.22;5093339;28;20433;-71
2021/11/19 05:23:23;;;;;;;0.70;0.70;;;;;;;11.58;100.00;101662.78;5073149;28;20449;-71
2021/11/19 05:25:50;;;;;;;0.40;0.30;;;;;;;11.58;100.00;101661.97;5073079;28;20457;-71
2021/11/19 05:28:20;;;;;;;0.40;0.30;;;;;;;11.61;100.00;101664.13;5073057;28;20464;-72
2021/11/19 05:30:47;;;;;;;0.40;0.40;;;;;;;11.64;100.00;101666.25;5073287;28;20503;-72
2021/11/19 05:33:19;;;;;;;0.40;0.20;;;;;;;11.66;100.00;101664.09;5091945;28;20853;-72
2021/11/19 05:35:46;;;;;;;0.40;0.30;;;;;;;11.66;100.00;101672.22;5093325;28;20443;-72
2021/11/19 05:38:13;;;;;;;0.40;0.30;;;;;;;11.73;100.00;101667.31;5093272;28;20483;-72
2021/11/19 05:40:39;;;;;;;0.40;0.30;;;;;;;11.76;100.00;101669.44;5093152;28;20432;-72
2021/11/19 05:43:06;;;;;;;0.40;0.30;;;;;;;11.79;100.00;101678.94;5092618;28;20440;-72
2021/11/19 05:45:34;;;;;;;0.40;0.30;;;;;;;11.78;100.00;101671.88;5092538;28;20445;-72
2021/11/19 05:48:02;;;;;;;0.40;0.30;;;;;;;11.83;100.00;101674.59;5092317;28;20486;-71
2021/11/19 05:50:31;;;;;;;0.40;0.20;;;;;;;11.89;100.00;101675.34;5093051;28;20563;-72
2021/11/19 05:53:02;;;;;;;0.40;0.30;;;;;;;11.92;100.00;101677.53;5096799;28;20440;-71
2021/11/19 05:55:31;;;;;;;0.40;0.30;;;;;;;11.95;100.00;101683.16;5096773;28;20436;-72
2021/11/19 05:57:57;;;;;;;0.40;0.30;;;;;;;11.95;100.00;101676.94;5097080;28;20452;-71
2021/11/19 06:00:26;;;;;;;0.40;0.30;;;;;;;11.92;100.00;101677.53;5096844;28;20444;-71
2021/11/19 06:02:54;;;;;;;0.40;0.30;;;;;;;11.98;100.00;101671.75;5097033;28;20476;-70
2021/11/19 06:05:21;;;;;;;0.53;0.50;;;;;;;11.98;100.00;101693.47;5096766;28;20987;-71
2021/11/19 06:07:49;;;;;;;0.40;0.30;;;;;;;12.02;100.00;101686.38;5096833;28;20464;-71
2021/11/19 06:10:18;;;;;;;0.40;0.20;;;;;;;12.04;100.00;101694.25;5096456;28;20508;-72
2021/11/19 06:12:48;;;;;;;0.40;0.30;;;;;;;12.07;100.00;101690.97;5095722;28;20539;-72
2021/11/19 06:15:19;;;;;;;0.40;0.30;;;;;;;12.07;100.00;101690.97;5096871;28;20440;-72
2021/11/19 06:17:48;;;;;;;0.40;0.30;;;;;;;12.03;100.00;101681.75;5096380;28;20989;-71
2021/11/19 06:20:17;;;;;;;0.40;0.30;;;;;;;12.02;100.00;101694.53;5096218;28;20436;-72
2021/11/19 06:22:46;;;;;;;0.40;0.30;;;;;;;11.99;100.00;101705.13;5096427;28;20439;-71
2021/11/19 06:25:21;;;;;;;0.40;0.30;;;;;;;12.03;100.00;101712.44;5096291;28;20506;-71
2021/11/19 06:27:49;;;;;;;0.40;0.30;;;;;;;12.05;100.00;101704.03;5096494;28;20474;-71
2021/11/19 06:30:17;;;;;;;0.40;0.30;;;;;;;12.05;100.00;101714.91;5096157;28;20848;-72
2021/11/19 06:32:44;;;;;;;0.40;0.30;;;;;;;12.09;100.00;101708.63;5096365;28;20440;-72
2021/11/19 06:35:11;;;;;;;0.40;0.20;;;;;;;12.09;100.00;101705.91;5096253;28;20922;-72
2021/11/19 06:37:39;;;;;;;0.40;0.30;;;;;;;12.14;100.00;101706.94;5096334;28;20464;-72
2021/11/19 06:40:09;;;;;;;0.40;0.30;;;;;;;12.10;100.00;101707.50;5095878;28;20436;-72
2021/11/19 06:42:37;;;;;;;0.40;0.30;;;;;;;12.10;100.00;101714.84;5096175;28;20444;-71
2021/11/19 06:45:04;;;;;;;0.40;0.30;;;;;;;12.13;100.00;101714.28;5095896;28;20956;-72
2021/11/19 06:47:31;;;;;;;0.40;0.30;;;;;;;12.11;100.00;101721.91;5096085;28;20495;-72
2021/11/19 06:49:58;;;;;;;0.40;0.30;;;;;;;12.08;100.00;101725.97;5095773;28;20487;-71
2021/11/19 06:52:24;;;;;;;0.40;0.30;;;;;;;12.07;100.00;101729.78;5096073;28;20441;-71
2021/11/19 06:54:51;;;;;;;0.40;0.27;;;;;;;12.03;100.00;101726.03;5096046;28;20487;-72
2021/11/19 06:57:19;;;;;;;0.40;0.30;;;;;;;12.01;100.00;101721.97;5095811;28;20996;-71
2021/11/19 06:59:47;;;;;;;2.10;2.00;;;;;;;12.02;100.00;101720.88;5095947;28;20444;-70
2021/11/19 07:02:14;;;;;;;0.40;0.27;;;;;;;12.03;100.00;101722.50;5094944;28;20449;-71
2021/11/19 07:04:41;;;;;;;0.40;0.30;;;;;;;12.06;100.00;101721.94;5095744;28;20478;-73
2021/11/19 07:07:08;;;;;;;0.40;0.30;;;;;;;12.10;100.00;101725.72;5095704;28;20488;-72
2021/11/19 07:09:37;;;;;;;0.40;0.30;;;;;;;12.05;100.00;101721.13;5095601;28;20449;-71
2021/11/19 07:12:05;;;;;;;0.40;0.20;;;;;;;12.06;100.00;101724.66;5101183;28;21014;-71
2021/11/19 07:14:32;;;;;;;0.40;0.30;;;;;;;12.04;100.00;101724.09;5114815;28;20802;-70
2021/11/19 07:17:04;;;;;;;1.03;1.03;;;;;;;12.07;100.00;101729.00;5094090;28;20457;-72
2021/11/19 07:19:31;;;;;;;0.40;0.30;;;;;;;12.05;100.00;101728.47;5095476;28;20437;-69
2021/11/19 07:21:57;;;;;;;0.40;0.30;;;;;;;12.04;100.00;101724.09;5094888;28;20445;-70
2021/11/19 07:24:24;;;;;;;0.40;0.30;;;;;;;12.05;100.00;101733.91;5094734;28;20460;-71
2021/11/19 07:26:51;;;;;;;0.40;0.30;;;;;;;12.05;100.00;101728.47;5096281;28;20469;-70
2021/11/19 07:29:17;;;;;;;0.40;0.30;;;;;;;12.08;100.00;101733.31;5094899;28;20450;-69
2021/11/19 07:31:44;;;;;;;0.40;0.30;;;;;;;12.12;100.00;101735.19;5094882;28;20483;-69
2021/11/19 07:34:12;;;;;;;0.40;0.30;;;;;;;12.12;100.00;101727.03;5095105;28;20820;-70
2021/11/19 07:36:39;;;;;;;0.40;0.20;;;;;;;12.17;100.00;101726.19;5094369;28;20460;-69
2021/11/19 07:39:07;;;;;;;0.40;0.30;;;;;;;12.09;100.00;101729.53;5095058;28;20436;-69
2021/11/19 07:41:34;;;;;;;0.50;0.40;;;;;;;12.12;100.00;101731.66;5094644;28;20452;-69
2021/11/19 07:44:01;;;;;;;0.40;0.30;;;;;;;12.15;100.00;101731.09;5094278;28;20447;-69
2021/11/19 07:46:29;;;;;;;0.40;0.30;;;;;;;12.17;100.00;101731.63;5110306;28;20471;-70
2021/11/19 07:48:57;;;;;;;0.40;0.20;;;;;;;12.11;100.00;101735.47;5094825;28;20433;-69
2021/11/19 07:51:28;;;;;;;0.40;0.30;;;;;;;12.09;100.00;101734.97;5094739;28;20476;-69
2021/11/19 07:53:55;;;;;;;0.40;0.30;;;;;;;12.10;100.00;101742.81;5094806;28;20428;-70
2021/11/19 07:56:29;;;;;;;0.40;0.40;;;;;;;12.16;100.00;101745.50;5094297;28;20468;-70
2021/11/19 07:58:56;;;;;;;0.40;0.30;;;;;;;12.20;100.00;101750.06;5094585;28;20437;-69
2021/11/19 08:01:22;;;;;;;0.40;0.20;;;;;;;12.26;100.00;101754.41;5094706;28;20436;-68
2021/11/19 08:03:49;;;;;;;0.40;0.30;;;;;;;12.27;100.00;101747.84;5094276;28;20963;-68
2021/11/19 08:06:16;;;;;;;0.40;0.30;;;;;;;12.24;100.00;101758.47;5094065;28;20477;-68
2021/11/19 08:08:46;;;;;;;0.40;0.30;;;;;;;12.28;100.00;101754.91;5094529;28;20457;-68
2021/11/19 08:11:14;;;;;;;0.40;0.30;;;;;;;12.32;100.00;101755.97;5093975;28;20476;-68
2021/11/19 08:13:41;;;;;;;0.40;0.30;;;;;;;12.31;100.00;101762.50;5094041;28;20444;-68
2021/11/19 08:16:08;;;;;;;0.40;0.30;;;;;;;12.32;100.00;101758.69;5093955;28;20854;-69
2021/11/19 08:18:42;;;;;;;1.87;1.67;;;;;;;12.37;100.00;101763.25;5094183;28;20540;-68
2021/11/19 08:21:09;;;;;;;0.40;0.30;;;;;;;12.32;100.00;101763.31;5094071;28;20420;-68
2021/11/19 08:23:49;;;;;;;0.40;0.30;;;;;;;12.31;100.00;101770.66;5094278;28;20491;-68
2021/11/19 08:26:20;;;;;;;0.40;0.30;;;;;;;12.37;100.00;101766.78;5092408;28;20549;-68
2021/11/19 08:28:47;;;;;;;0.40;0.30;;;;;;;12.40;100.00;101767.34;5094230;28;20432;-68
2021/11/19 08:31:24;;;;;;;0.40;0.30;;;;;;;12.31;100.00;101773.38;5093693;28;20476;-68
2021/11/19 08:33:51;;;;;;;0.40;0.30;;;;;;;12.33;100.00;101768.44;5093546;28;20805;-68
2021/11/19 08:36:21;;;;;;;0.40;0.20;;;;;;;12.38;100.00;101760.25;5093225;28;20476;-68
2021/11/19 08:38:49;;;;;;;0.40;0.30;;;;;;;12.41;100.00;101761.59;5093989;28;20439;-69
2021/11/19 08:41:17;;;;;;;0.40;0.30;;;;;;;12.41;100.00;101768.94;5093335;28;20433;-69
2021/11/19 08:43:46;;;;;;;0.50;0.47;;;;;;;12.42;100.00;101774.09;5093996;28;20435;-68
2021/11/19 08:46:17;;;;;;;0.40;0.30;;;;;;;12.43;100.00;101772.19;5093855;28;20440;-68
2021/11/19 08:48:46;;;;;;;0.40;0.27;;;;;;;12.46;100.00;101768.91;5093667;28;20899;-69
2021/11/19 08:51:18;;;;;;;0.40;0.30;;;;;;;12.42;100.00;101765.13;5093236;28;20916;-69
2021/11/19 08:53:46;;;;;;;0.40;0.30;;;;;;;12.46;100.00;101763.47;5093580;28;20823;-69
2021/11/19 08:56:14;;;;;;;0.40;0.30;;;;;;;12.44;100.00;101758.31;5093148;28;20461;-68
2021/11/19 08:58:43;;;;;;;0.40;0.27;;;;;;;12.46;100.00;101766.19;5093695;28;20437;-69
2021/11/19 09:01:11;;;;;;;0.40;0.30;;;;;;;12.45;100.00;101759.13;5093676;28;20441;-69
2021/11/19 09:03:38;;;;;;;0.50;0.50;;;;;;;12.41;100.00;101767.03;5092515;28;20455;-69
2021/11/19 09:06:07;;;;;;;0.40;0.20;;;;;;;12.42;100.00;101771.38;5093282;28;20459;-69
2021/11/19 09:08:34;;;;;;;0.60;0.60;;;;;;;12.44;100.00;101768.34;5101019;28;20456;-69
2021/11/19 09:11:02;;;;;;;0.40;0.20;;;;;;;12.47;100.00;101770.50;5106014;28;20491;-69
2021/11/19 09:13:31;;;;;;;0.40;0.30;;;;;;;12.47;100.00;101778.66;5093228;28;20942;-69
2021/11/19 09:15:58;;;;;;;0.40;0.30;;;;;;;12.42;100.00;101774.09;5093135;28;20933;-69
2021/11/19 09:18:32;;;;;;;0.40;0.30;;;;;;;12.43;100.00;101770.28;5093325;28;20436;-69
2021/11/19 09:21:16;;;;;;;0.40;0.30;;;;;;;12.45;100.00;101767.28;5093332;28;20443;-69
2021/11/19 09:23:45;;;;;;;0.40;0.30;;;;;;;12.47;100.00;101765.09;5094435;28;20473;-69
2021/11/19 09:26:14;;;;;;;0.40;0.30;;;;;;;12.42;100.00;101771.38;5108108;28;20455;-69
2021/11/19 09:28:45;;;;;;;0.40;0.30;;;;;;;12.40;100.00;101770.84;5092575;28;20440;-69
2021/11/19 09:31:15;;;;;;;0.40;0.20;;;;;;;12.30;100.00;101763.56;5104949;28;20578;-69
2021/11/19 09:33:42;;;;;;;0.40;0.30;;;;;;;12.35;100.00;101770.88;5093328;28;20524;-69
2021/11/19 09:36:09;;;;;;;0.40;0.30;;;;;;;12.29;100.00;101764.69;5093230;28;20433;-69
2021/11/19 09:38:35;;;;;;;0.40;0.20;;;;;;;12.32;100.00;101766.84;5093365;28;20437;-69
2021/11/19 09:41:26;;;;;;;0.40;0.30;;;;;;;12.37;100.00;101776.84;5092419;28;20437;-69
2021/11/19 09:44:04;;;;;;;0.50;0.43;;;;;;;12.35;100.00;101779.84;5072027;28;20479;-69
2021/11/19 09:47:03;;;;;;;0.40;0.20;;;;;;;12.34;100.00;101775.50;5072970;28;20469;-69
2021/11/19 09:50:02;;;;;;;0.50;0.43;;;;;;;12.40;100.00;101778.19;5086787;28;20441;-69
2021/11/19 09:53:29;;;;;;;0.40;0.30;;;;;;;12.38;100.00;101765.69;5093002;28;20474;-69
2021/11/19 09:56:10;;;;;;;0.40;0.30;;;;;;;12.36;100.00;101767.88;5104128;28;20462;-69
2021/11/19 09:58:49;;;;;;;0.40;0.30;;;;;;;12.40;100.00;101760.00;5113467;28;20424;-69
2021/11/19 10:01:52;;;;;;;0.40;0.20;;;;;;;12.44;100.00;101754.78;5107265;28;20834;-69
2021/11/19 10:04:54;;;;;;;0.40;0.30;;;;;;;12.36;100.00;101764.38;5082071;28;20471;-69
2021/11/19 10:07:29;;;;;;;0.40;0.27;;;;;;;12.47;100.00;101756.94;5092963;28;20471;-69
2021/11/19 10:10:07;;;;;;;0.40;0.30;;;;;;;12.49;100.00;101752.84;5092992;28;20424;-69
2021/11/19 10:12:43;;;;;;;0.40;0.30;;;;;;;12.54;100.00;101758.22;5092395;28;20460;-69
2021/11/19 10:15:15;;;;;;;0.40;0.30;;;;;;;12.46;100.00;101763.47;5091553;28;20443;-69
2021/11/19 10:18:02;;;;;;;0.83;0.83;;;;;;;12.44;100.00;101755.63;5092834;28;20469;-69
2021/11/19 10:20:34;;;;;;;0.40;0.30;;;;;;;12.45;100.00;101757.22;5093223;28;20417;-69
2021/11/19 10:23:08;;;;;;;0.40;0.30;;;;;;;12.50;100.00;101753.66;5107508;28;20462;-69
2021/11/19 10:25:39;;;;;;;0.40;0.30;;;;;;;12.52;100.00;101748.72;5092791;28;20466;-69
2021/11/19 10:28:17;;;;;;;0.40;0.30;;;;;;;12.57;100.00;101765.00;5092572;28;20469;-69
2021/11/19 10:30:48;;;;;;;0.40;0.30;;;;;;;12.57;100.00;101765.00;5092181;28;20856;-69
2021/11/19 10:33:19;;;;;;;0.40;0.23;;;;;;;12.58;100.00;101766.63;5093087;28;20436;-69
2021/11/19 10:36:05;;;;;;;0.87;0.87;;;;;;;12.66;100.00;101754.31;5092439;28;20432;-69
2021/11/19 10:38:58;;;;;;;0.40;0.30;;;;;;;12.62;100.00;101754.09;5094915;28;20427;-69
2021/11/19 10:41:51;;;;;;;0.40;0.30;;;;;;;12.68;100.00;101749.41;5076340;28;20425;-69
2021/11/19 10:44:55;;;;;;;0.40;0.30;;;;;;;12.65;100.00;101748.06;5082834;28;20439;-69
2021/11/19 10:47:53;;;;;;;0.40;0.30;;;;;;;12.71;100.00;101744.22;5076187;28;20543;-70
2021/11/19 10:51:00;;;;;;;0.40;0.30;;;;;;;12.73;100.00;101746.63;5079240;28;20451;-69
2021/11/19 10:54:23;;;;;;;0.40;0.30;;;;;;;12.72;100.00;101745.03;5095874;28;20425;-69
2021/11/19 10:56:57;;;;;;;0.40;0.30;;;;;;;12.78;100.00;101747.41;5085258;28;20486;-69
2021/11/19 10:59:29;;;;;;;0.40;0.30;;;;;;;12.78;100.00;101750.13;5096065;28;20429;-70
2021/11/19 11:01:59;;;;;;;0.40;0.30;;;;;;;12.77;100.00;101751.22;5095600;28;20421;-73
2021/11/19 11:04:37;;;;;;;0.40;0.20;;;;;;;12.77;100.00;101750.41;5095952;28;20425;-71
2021/11/19 11:07:16;;;;;;;0.40;0.30;;;;;;;12.85;100.00;101741.63;5096000;28;20526;-71
2021/11/19 11:09:50;;;;;;;0.40;0.30;;;;;;;12.87;100.00;101751.09;5095616;28;20878;-71
2021/11/19 11:12:29;;;;;;;0.40;0.20;;;;;;;12.90;100.00;101754.38;5095270;28;21142;-73
2021/11/19 11:15:27;;;;;;;0.40;0.30;;;;;;;12.97;100.00;101760.25;5095172;28;20437;-72
2021/11/19 11:18:22;;;;;;;0.40;0.30;;;;;;;13.01;100.00;101753.16;5051452;28;20571;-71
2021/11/19 11:21:14;;;;;;;0.40;0.30;;;;;;;12.99;100.00;101744.47;5089033;28;20483;-74
2021/11/19 11:23:57;;;;;;;0.40;0.30;;;;;;;12.97;100.00;101752.09;5093960;28;20437;-72
2021/11/19 11:26:26;;;;;;;0.40;0.30;;;;;;;13.00;100.00;101759.69;5094575;28;20530;-72
2021/11/19 11:28:55;;;;;;;0.40;0.20;;;;;;;12.99;100.00;101755.34;5094785;28;20447;-72
2021/11/19 11:31:46;;;;;;;0.40;0.30;;;;;;;13.02;100.00;101752.06;5095337;28;20484;-73
2021/11/19 11:34:20;;;;;;;0.50;0.47;;;;;;;13.06;100.00;101756.66;5086222;28;20476;-74